Time;durP1;ratioP1;P1;durP2;ratioP2;P2;SDS_P1;SDS_P2;PMS_P1;PMS_P2;Temp;Humidity;BMP_temperature;BMP_pressure;BME280_temperature;BME280_humidity;BME280_pressure;Samples;Min_cycle;Max_cycle;Signal;HPM_P1;HPM_P2
2022/01/23 00:01:55;;;;;;;4.63;2.50;;;;;;;-6.19;100.00;95255.38;5063334;28;20509;-47
2022/01/23 00:04:22;;;;;;;1.42;1.10;;;;;;;-6.21;100.00;95257.19;5062091;28;20051;-47
2022/01/23 00:06:49;;;;;;;5.22;1.95;;;;;;;-6.29;100.00;95249.41;5061435;28;20049;-49
2022/01/23 00:09:17;;;;;;;2.90;2.63;;;;;;;-6.35;100.00;95256.53;5064054;28;21364;-52
2022/01/23 00:11:50;;;;;;;2.65;2.35;;;;;;;-6.40;100.00;95273.81;5062685;28;20055;-49
2022/01/23 00:17:18;;;;;;;1.27;1.17;;;;;;;-6.53;100.00;95258.72;5044195;28;20056;-47
2022/01/23 00:19:47;;;;;;;3.45;1.38;;;;;;;-6.52;100.00;95274.75;5061564;28;20045;-47
2022/01/23 00:22:14;;;;;;;2.35;1.50;;;;;;;-6.50;100.00;95257.69;5065389;28;20422;-47
2022/01/23 00:30:29;;;;;;;3.95;2.80;;;;;;;-6.46;100.00;95271.75;5061102;28;20568;-47
2022/01/23 00:33:00;;;;;;;2.38;1.95;;;;;;;-6.46;100.00;95274.28;5063071;28;20050;-49
2022/01/23 00:35:28;;;;;;;1.90;1.48;;;;;;;-6.49;100.00;95289.72;5065427;28;20045;-49
2022/01/23 00:37:57;;;;;;;2.58;1.95;;;;;;;-6.49;100.00;95278.78;5066069;28;20040;-47
2022/01/23 00:40:26;;;;;;;2.03;1.20;;;;;;;-6.52;100.00;95284.88;5063882;28;20529;-47
2022/01/23 00:42:58;;;;;;;3.55;2.47;;;;;;;-6.55;100.00;95285.13;5065164;28;20037;-47
2022/01/23 00:45:30;;;;;;;3.33;2.63;;;;;;;-6.58;100.00;95280.28;5064364;28;20589;-47
2022/01/23 00:48:05;;;;;;;5.07;2.70;;;;;;;-6.64;100.00;95275.69;5065792;28;20041;-47
2022/01/23 00:50:37;;;;;;;7.00;2.33;;;;;;;-6.63;100.00;95287.41;5063446;28;20518;-47
2022/01/23 00:53:09;;;;;;;3.35;2.08;;;;;;;-6.68;100.00;95289.47;5068309;28;20177;-47
2022/01/23 00:55:37;;;;;;;3.25;1.95;;;;;;;-6.73;100.00;95288.09;5065418;28;20110;-47
2022/01/23 00:58:05;;;;;;;2.88;1.55;;;;;;;-6.76;100.00;95292.59;5065878;28;20036;-51
2022/01/23 01:00:32;;;;;;;3.53;1.50;;;;;;;-6.83;100.00;95292.22;5068788;28;20048;-47
2022/01/23 01:03:00;;;;;;;2.75;2.17;;;;;;;-6.81;100.00;95292.91;5066086;28;20040;-49
2022/01/23 01:05:27;;;;;;;1.90;1.38;;;;;;;-6.80;100.00;95292.00;5067512;28;20102;-47
2022/01/23 01:07:54;;;;;;;2.05;1.60;;;;;;;-6.86;100.00;95284.88;5066117;28;20040;-48
2022/01/23 01:10:32;;;;;;;2.03;1.33;;;;;;;-6.88;100.00;95296.81;5064519;28;20407;-49
2022/01/23 01:13:01;;;;;;;2.97;2.05;;;;;;;-6.95;100.00;95299.00;5065419;28;20052;-47
2022/01/23 01:15:41;;;;;;;2.70;2.05;;;;;;;-6.93;100.00;95298.91;5064285;28;20089;-47
2022/01/23 01:32:01;;;;;;;3.58;2.88;;;;;;;-7.03;100.00;95295.41;5065358;28;20047;-49
2022/01/23 01:37:00;;;;;;;3.83;2.53;;;;;;;-7.05;100.00;95297.25;5063252;28;20442;-47
2022/01/23 01:39:41;;;;;;;3.55;1.58;;;;;;;-7.09;100.00;95296.66;5096134;28;20059;-48
2022/01/23 01:42:08;;;;;;;2.58;2.00;;;;;;;-7.11;100.00;95299.31;5061779;28;20452;-49
2022/01/23 01:44:36;;;;;;;5.20;3.03;;;;;;;-7.08;100.00;95289.88;5062232;28;20055;-50
2022/01/23 01:47:11;;;;;;;8.77;1.58;;;;;;;-7.22;100.00;95286.63;5065622;28;20863;-48
2022/01/23 01:49:42;;;;;;;4.82;2.38;;;;;;;-7.18;100.00;95288.00;5064997;28;20118;-48
2022/01/23 01:52:10;;;;;;;4.13;2.55;;;;;;;-7.24;100.00;95278.31;5065471;28;20048;-49
2022/01/23 01:54:38;;;;;;;3.35;2.08;;;;;;;-7.23;100.00;95291.78;5065488;28;20949;-49
2022/01/23 01:57:15;;;;;;;2.35;1.35;;;;;;;-7.25;100.00;95296.97;5067857;28;20147;-47
2022/01/23 02:00:25;;;;;;;5.60;2.30;;;;;;;-7.28;100.00;95301.44;5065880;28;20109;-48
2022/01/23 02:08:40;;;;;;;1.92;1.55;;;;;;;-7.22;100.00;95296.75;5062281;28;20093;-48
2022/01/23 02:11:18;;;;;;;3.20;1.85;;;;;;;-7.16;100.00;95296.31;5064117;28;20044;-48
2022/01/23 02:14:37;;;;;;;2.83;2.03;;;;;;;-7.09;100.00;95293.31;5068106;28;20097;-48
2022/01/23 02:55:13;;;;;;;11.13;3.60;;;;;;;-7.35;100.00;95326.38;5068850;28;20469;-48
2022/01/23 02:57:53;;;;;;;3.33;3.03;;;;;;;-7.30;100.00;95324.31;5060912;28;20098;-47
2022/01/23 03:00:31;;;;;;;4.82;2.58;;;;;;;-7.24;100.00;95328.94;5065665;28;21758;-47
2022/01/23 03:03:12;;;;;;;3.88;1.90;;;;;;;-7.16;100.00;95331.75;5065452;28;20055;-48
2022/01/23 03:14:39;;;;;;;2.00;1.48;;;;;;;-7.13;100.00;95331.53;5068931;28;20113;-48
2022/01/23 03:25:38;;;;;;;1.13;0.77;;;;;;;-7.41;100.00;95334.41;5060957;28;20049;-46
2022/01/23 03:30:53;;;;;;;3.70;1.92;;;;;;;-7.44;100.00;95337.16;5061476;28;20040;-47
2022/01/23 03:33:21;;;;;;;8.40;3.35;;;;;;;-7.43;100.00;95349.69;5064734;28;20491;-47
2022/01/23 03:35:48;;;;;;;1.88;1.58;;;;;;;-7.48;100.00;95348.41;5061392;28;20053;-48
2022/01/23 03:38:14;;;;;;;8.75;2.40;;;;;;;-7.51;100.00;95355.31;5062696;28;20029;-49
2022/01/23 03:40:41;;;;;;;4.25;2.53;;;;;;;-7.62;100.00;95350.16;5062867;28;20111;-48
2022/01/23 03:43:11;;;;;;;4.03;2.47;;;;;;;-7.60;100.00;95350.84;5060189;28;20048;-49
2022/01/23 03:50:46;;;;;;;5.38;2.65;;;;;;;-7.78;100.00;95354.66;5061335;28;20044;-47
2022/01/23 03:53:23;;;;;;;6.55;3.42;;;;;;;-7.78;100.00;95362.25;5060490;28;20045;-48
2022/01/23 03:55:51;;;;;;;5.45;3.58;;;;;;;-7.76;100.00;95358.72;5061231;28;20059;-48
2022/01/23 03:58:18;;;;;;;2.35;1.95;;;;;;;-7.74;100.00;95366.19;5061044;28;20604;-48
2022/01/23 04:00:45;;;;;;;3.22;2.03;;;;;;;-7.77;100.00;95362.16;5062043;28;20045;-49
2022/01/23 04:03:14;;;;;;;4.25;2.58;;;;;;;-7.75;100.00;95369.66;5062011;28;20040;-49
2022/01/23 04:05:41;;;;;;;6.90;2.45;;;;;;;-7.73;100.00;95367.81;5060880;28;20044;-49
2022/01/23 04:08:08;;;;;;;6.15;3.47;;;;;;;-7.77;100.00;95376.53;5069855;28;20079;-46
2022/01/23 04:10:36;;;;;;;4.43;3.38;;;;;;;-7.80;100.00;95381.78;5065405;28;20051;-46
2022/01/23 04:13:17;;;;;;;6.35;3.00;;;;;;;-7.90;100.00;95367.25;5064248;28;20052;-48
2022/01/23 04:21:02;;;;;;;5.65;2.90;;;;;;;-7.89;100.00;95373.09;5064480;28;20558;-48
2022/01/23 04:45:22;;;;;;;3.60;2.95;;;;;;;-7.48;100.00;95371.19;5068816;28;20048;-47
2022/01/23 05:04:48;;;;;;;7.85;2.60;;;;;;;-7.39;100.00;95395.84;5048487;28;20122;-47
2022/01/23 05:07:35;;;;;;;6.85;3.95;;;;;;;-7.40;100.00;95399.28;5065534;28;20136;-47
2022/01/23 05:10:21;;;;;;;10.60;4.70;;;;;;;-7.42;100.00;95401.09;5065172;28;20197;-47
2022/01/23 05:12:56;;;;;;;3.72;2.45;;;;;;;-7.37;100.00;95404.13;5062804;28;20055;-47
2022/01/23 05:15:23;;;;;;;11.48;5.18;;;;;;;-7.36;100.00;95405.75;5063617;28;20127;-46
2022/01/23 05:17:50;;;;;;;16.65;7.03;;;;;;;-7.34;100.00;95409.00;5063556;28;20465;-46
2022/01/23 05:20:19;;;;;;;15.77;8.18;;;;;;;-7.28;100.00;95413.59;5062645;28;20037;-47
2022/01/23 05:22:48;;;;;;;11.40;4.70;;;;;;;-7.31;100.00;95418.88;5064083;28;20490;-47
2022/01/23 05:25:22;;;;;;;9.95;6.28;;;;;;;-7.26;100.00;95426.16;5065397;28;20040;-49
2022/01/23 05:27:54;;;;;;;7.75;3.97;;;;;;;-7.27;100.00;95425.38;5065384;28;20060;-49
2022/01/23 05:30:22;;;;;;;8.23;5.03;;;;;;;-7.24;100.00;95419.25;5068704;28;20041;-47
2022/01/23 05:32:51;;;;;;;14.45;7.93;;;;;;;-7.20;100.00;95420.66;5067608;28;20036;-48
2022/01/23 05:35:21;;;;;;;4.93;2.90;;;;;;;-7.23;100.00;95436.09;5062777;28;20139;-47
2022/01/23 05:37:49;;;;;;;3.58;2.53;;;;;;;-7.18;100.00;95424.72;5062761;28;20048;-47
2022/01/23 05:40:20;;;;;;;6.15;3.35;;;;;;;-7.14;100.00;95426.09;5064526;28;20037;-50
2022/01/23 05:42:50;;;;;;;10.60;2.92;;;;;;;-7.22;100.00;95420.78;5062448;28;20685;-47
2022/01/23 05:45:19;;;;;;;6.05;3.95;;;;;;;-7.21;100.00;95419.84;5062874;28;20068;-52
2022/01/23 05:48:04;;;;;;;12.55;4.20;;;;;;;-7.31;100.00;95418.88;5067233;28;20063;-49
2022/01/23 05:50:48;;;;;;;6.28;2.75;;;;;;;-7.30;100.00;95431.44;5062433;28;20049;-47
2022/01/23 05:53:53;;;;;;;4.10;1.50;;;;;;;-7.36;100.00;95423.47;5004580;28;20073;-48
2022/01/23 05:56:49;;;;;;;4.85;2.28;;;;;;;-7.40;100.00;95424.56;4969195;28;20600;-47
2022/01/23 05:59:25;;;;;;;4.57;2.92;;;;;;;-7.41;100.00;95428.84;5076591;28;20076;-47
2022/01/23 06:01:54;;;;;;;4.25;1.98;;;;;;;-7.37;100.00;95430.25;5067717;28;20044;-47
2022/01/23 06:04:29;;;;;;;2.60;1.58;;;;;;;-7.39;100.00;95427.00;5063896;28;20044;-47
2022/01/23 06:07:16;;;;;;;3.10;2.20;;;;;;;-7.37;100.00;95439.56;5063134;28;20063;-47
2022/01/23 06:09:54;;;;;;;3.30;2.40;;;;;;;-7.50;100.00;95435.34;5063299;28;20043;-50
2022/01/23 06:12:21;;;;;;;3.60;1.25;;;;;;;-7.54;100.00;95428.88;5063051;28;20102;-47
2022/01/23 06:14:49;;;;;;;8.88;7.47;;;;;;;-7.59;100.00;95433.44;5063921;28;20151;-49
2022/01/23 06:17:16;;;;;;;4.05;1.88;;;;;;;-7.64;100.00;95432.94;5063074;28;20064;-47
2022/01/23 06:20:01;;;;;;;7.28;2.08;;;;;;;-7.65;100.00;95431.34;5063097;28;20043;-48
2022/01/23 06:22:34;;;;;;;6.85;1.98;;;;;;;-7.65;100.00;95450.75;5064374;28;20059;-47
2022/01/23 06:25:32;;;;;;;6.07;2.50;;;;;;;-7.77;100.00;95432.16;5062819;28;20072;-47
2022/01/23 06:28:09;;;;;;;5.15;2.75;;;;;;;-7.66;100.00;95447.41;5061761;28;20167;-47
2022/01/23 06:30:38;;;;;;;4.00;3.10;;;;;;;-7.70;100.00;95453.59;5062020;28;20039;-48
2022/01/23 06:33:05;;;;;;;6.88;2.60;;;;;;;-7.62;100.00;95443.75;5063459;28;20048;-47
2022/01/23 06:35:33;;;;;;;4.47;3.63;;;;;;;-7.60;100.00;95451.25;5063875;28;20051;-47
2022/01/23 06:38:00;;;;;;;8.35;4.38;;;;;;;-7.53;100.00;95455.78;5064299;28;20506;-50
2022/01/23 06:40:27;;;;;;;3.95;3.08;;;;;;;-7.43;100.00;95465.31;5061409;28;20051;-48
2022/01/23 06:43:12;;;;;;;4.68;3.17;;;;;;;-7.38;100.00;95468.31;5061827;28;20212;-48
2022/01/23 06:45:54;;;;;;;10.40;4.15;;;;;;;-7.19;100.00;95463.59;5061237;28;20056;-48
2022/01/23 06:48:21;;;;;;;5.32;2.63;;;;;;;-7.06;99.75;95457.69;5063243;28;20044;-48
2022/01/23 06:50:49;;;;;;;12.05;5.82;;;;;;;-6.92;99.15;95453.25;5060746;28;20059;-50
2022/01/23 06:53:18;;;;;;;4.97;4.35;;;;;;;-6.85;98.38;95443.50;5065906;28;20490;-49
2022/01/23 06:55:45;;;;;;;10.30;4.53;;;;;;;-6.60;97.47;95454.44;5060362;28;20081;-48
2022/01/23 06:58:12;;;;;;;12.13;5.30;;;;;;;-6.45;96.64;95453.31;5060875;28;20063;-51
2022/01/23 07:00:39;;;;;;;8.65;4.88;;;;;;;-6.38;96.20;95459.56;5060476;28;20530;-51
2022/01/23 07:03:19;;;;;;;3.58;2.08;;;;;;;-6.26;96.09;95452.00;5062043;28;20052;-48
2022/01/23 07:06:10;;;;;;;5.53;1.98;;;;;;;-6.09;95.72;95464.22;5061366;28;20059;-48
2022/01/23 07:09:10;;;;;;;13.15;2.95;;;;;;;-6.11;95.60;95461.00;5061336;28;20464;-48
2022/01/23 07:12:02;;;;;;;3.38;2.30;;;;;;;-6.04;95.62;95462.16;5059881;28;20051;-47
2022/01/23 07:14:48;;;;;;;2.47;1.55;;;;;;;-5.97;95.33;95468.41;5062586;28;20050;-48
2022/01/23 07:17:39;;;;;;;1.95;1.48;;;;;;;-5.98;95.31;95469.34;5061623;28;20464;-50
2022/01/23 07:20:19;;;;;;;5.30;3.22;;;;;;;-5.93;95.41;95468.16;5060502;28;20044;-47
2022/01/23 07:22:47;;;;;;;3.08;1.73;;;;;;;-6.18;95.18;95419.25;5065850;28;20045;-48
2022/01/23 07:25:14;;;;;;;3.65;2.13;;;;;;;-5.85;94.94;95466.66;5066785;28;20054;-50
2022/01/23 07:27:53;;;;;;;5.50;3.08;;;;;;;-5.84;94.51;95462.38;5067350;28;20567;-48
2022/01/23 07:30:34;;;;;;;8.55;3.85;;;;;;;-5.69;94.10;95465.50;5059869;28;21410;-48
2022/01/23 07:33:03;;;;;;;7.55;3.20;;;;;;;-5.61;93.68;95473.34;5059708;28;20407;-49
2022/01/23 07:35:30;;;;;;;12.05;5.05;;;;;;;-5.62;94.01;95470.00;5059926;28;20052;-53
2022/01/23 07:37:58;;;;;;;7.38;4.07;;;;;;;-5.61;93.68;95464.00;5059613;28;20098;-49
2022/01/23 07:40:51;;;;;;;5.15;3.20;;;;;;;-5.53;92.95;95470.22;5058812;28;20439;-53
2022/01/23 07:43:26;;;;;;;4.82;2.95;;;;;;;-5.61;92.83;95460.66;5064036;28;20156;-49
2022/01/23 07:46:12;;;;;;;6.18;3.00;;;;;;;-5.65;93.07;95466.91;5067985;28;20154;-49
2022/01/23 07:48:57;;;;;;;9.35;4.30;;;;;;;-5.59;93.30;95461.34;5069966;28;20071;-47
2022/01/23 07:51:45;;;;;;;8.40;4.60;;;;;;;-5.38;93.05;95458.91;5065016;28;20072;-48
2022/01/23 07:54:45;;;;;;;5.07;2.50;;;;;;;-5.38;92.37;95464.00;5063986;28;20066;-48
2022/01/23 07:57:33;;;;;;;4.80;3.08;;;;;;;-5.30;92.25;95456.59;5061135;28;20045;-47
2022/01/23 08:00:38;;;;;;;;;;;;;;;-5.26;91.71;95460.53;5062342;28;20076;-50
2022/01/23 08:03:05;;;;;;;2.40;1.65;;;;;;;-5.30;92.19;95461.66;5062209;28;19924;-49
2022/01/23 08:05:51;;;;;;;3.10;2.80;;;;;;;-5.25;92.64;95464.66;5057744;28;20169;-48
2022/01/23 08:08:36;;;;;;;11.30;6.80;;;;;;;-5.23;93.51;95462.81;5067376;28;20055;-49
2022/01/23 08:11:08;;;;;;;8.27;4.07;;;;;;;-5.21;92.56;95466.03;5062923;28;20419;-47
2022/01/23 08:13:35;;;;;;;11.60;6.30;;;;;;;-5.21;93.64;95460.16;5062394;28;20561;-51
2022/01/23 08:16:02;;;;;;;9.38;5.15;;;;;;;-5.18;93.07;95463.25;5061981;28;20051;-48
2022/01/23 08:18:29;;;;;;;4.78;2.97;;;;;;;-5.15;93.63;95463.94;5064595;28;20041;-49
2022/01/23 08:20:56;;;;;;;6.18;5.20;;;;;;;-4.97;93.81;95472.66;5077002;28;20181;-49
2022/01/23 08:23:23;;;;;;;9.40;7.07;;;;;;;-4.91;93.36;95468.88;5067617;28;20044;-47
2022/01/23 08:25:50;;;;;;;10.85;7.35;;;;;;;-4.97;92.63;95471.88;5069509;28;20110;-47
2022/01/23 08:28:16;;;;;;;8.95;6.53;;;;;;;-4.90;93.39;95471.28;5068458;28;20047;-50
2022/01/23 08:30:43;;;;;;;6.68;4.10;;;;;;;-4.84;93.09;95462.38;5072834;28;20058;-48
2022/01/23 08:33:11;;;;;;;6.72;4.85;;;;;;;-4.88;94.10;95487.22;5067369;28;20044;-48
2022/01/23 08:35:40;;;;;;;4.75;2.40;;;;;;;-4.91;93.92;95469.69;5069318;28;20151;-49
2022/01/23 08:38:08;;;;;;;5.35;3.58;;;;;;;-4.99;94.73;95469.44;5066651;28;20098;-49
2022/01/23 08:43:13;;;;;;;6.97;3.63;;;;;;;-4.83;95.45;95474.16;5071585;28;20040;-48
2022/01/23 08:45:40;;;;;;;5.50;2.80;;;;;;;-4.88;94.80;95466.06;5070336;28;20523;-48
2022/01/23 08:48:07;;;;;;;4.82;2.45;;;;;;;-5.02;94.97;95467.97;5067654;28;20048;-48
2022/01/23 08:50:35;;;;;;;5.45;4.00;;;;;;;-4.86;95.45;95470.13;5071811;28;20048;-47
2022/01/23 08:53:02;;;;;;;4.50;2.92;;;;;;;-4.70;94.93;95463.81;5067822;28;20036;-48
2022/01/23 08:55:29;;;;;;;4.75;3.45;;;;;;;-4.72;94.43;95481.72;5065155;28;20043;-48
2022/01/23 08:57:56;;;;;;;6.40;3.72;;;;;;;-4.70;93.41;95461.28;5065423;28;20074;-49
2022/01/23 09:00:30;;;;;;;3.60;2.88;;;;;;;-4.65;92.85;95464.28;5068407;28;20395;-49
2022/01/23 09:02:58;;;;;;;4.97;3.55;;;;;;;-4.72;94.25;95465.69;5065876;28;20040;-47
2022/01/23 09:05:26;;;;;;;14.45;5.97;;;;;;;-4.69;93.30;95475.63;5066984;28;20063;-47
2022/01/23 09:07:54;;;;;;;4.47;3.33;;;;;;;-4.64;93.46;95468.44;5064946;28;20049;-48
2022/01/23 09:10:26;;;;;;;8.27;5.03;;;;;;;-4.74;93.32;95467.53;5063888;28;20083;-50
2022/01/23 09:13:29;;;;;;;11.15;6.22;;;;;;;-4.76;93.71;95469.41;5064740;28;20055;-47
2022/01/23 09:15:41;;;;;;;11.45;4.68;;;;;;;-4.75;94.06;95455.75;5064836;28;20073;-48
2022/01/23 09:18:09;;;;;;;16.08;6.75;;;;;;;-4.72;94.57;95465.69;5069882;28;20036;-49
2022/01/23 09:20:36;;;;;;;19.92;8.75;;;;;;;-4.62;94.08;95453.88;5066067;28;20379;-47
2022/01/23 09:23:03;;;;;;;8.02;4.60;;;;;;;-4.61;94.17;95473.25;5065044;28;20041;-47
2022/01/23 09:25:29;;;;;;;3.00;2.72;;;;;;;-4.62;94.82;95461.50;5065618;28;20051;-49
2022/01/23 09:28:03;;;;;;;4.05;2.05;;;;;;;-4.71;95.32;95462.22;5065716;28;20494;-50
2022/01/23 09:30:35;;;;;;;5.47;3.22;;;;;;;-4.75;94.75;95468.44;5065110;28;20033;-48
2022/01/23 09:33:03;;;;;;;3.63;2.65;;;;;;;-4.78;96.00;95450.94;5065600;28;20051;-48
2022/01/23 09:35:30;;;;;;;3.60;2.40;;;;;;;-4.80;95.73;95464.56;5059666;28;20066;-52
2022/01/23 09:37:57;;;;;;;6.30;3.70;;;;;;;-4.88;94.52;95456.75;5061215;28;20114;-48
2022/01/23 09:40:25;;;;;;;13.10;6.00;;;;;;;-4.80;95.64;95441.69;5063500;28;20041;-49
2022/01/23 09:42:58;;;;;;;7.45;4.78;;;;;;;-4.78;96.35;95450.94;5059329;28;20044;-47
2022/01/23 09:45:26;;;;;;;6.05;3.80;;;;;;;-4.84;98.01;95436.97;5063495;28;20533;-47
2022/01/23 09:47:57;;;;;;;6.03;3.95;;;;;;;-4.86;97.10;95444.72;5067375;28;20068;-49
2022/01/23 09:50:24;;;;;;;7.05;4.35;;;;;;;-5.05;96.21;95445.34;5065925;28;20428;-49
2022/01/23 09:52:56;;;;;;;5.75;3.47;;;;;;;-4.93;95.60;95469.00;5069545;28;20040;-49
2022/01/23 09:55:26;;;;;;;4.18;3.25;;;;;;;-4.88;94.57;95438.94;5068101;28;20072;-48
2022/01/23 09:57:53;;;;;;;13.05;5.18;;;;;;;-4.86;95.55;95429.47;5066807;28;20040;-47
2022/01/23 10:00:24;;;;;;;5.35;3.90;;;;;;;-4.81;95.01;95426.53;5066803;28;20836;-48
2022/01/23 10:02:51;;;;;;;9.23;3.97;;;;;;;-4.70;94.39;95431.59;5068967;28;20040;-47
2022/01/23 10:05:20;;;;;;;4.93;3.30;;;;;;;-4.70;94.47;95433.31;5066977;28;20106;-48
2022/01/23 10:07:48;;;;;;;6.43;4.45;;;;;;;-4.71;94.45;95416.47;5069933;28;20039;-47
2022/01/23 10:10:26;;;;;;;9.73;4.60;;;;;;;-4.72;94.69;95409.75;5066083;28;20048;-48
2022/01/23 10:12:55;;;;;;;6.38;3.30;;;;;;;-4.72;92.54;95435.19;5064874;28;20107;-48
2022/01/23 10:15:31;;;;;;;2.42;1.65;;;;;;;-4.58;92.04;95401.84;5070015;28;20051;-50
2022/01/23 10:17:58;;;;;;;6.00;2.83;;;;;;;-4.53;91.55;95399.72;5069571;28;20402;-47
2022/01/23 10:20:25;;;;;;;5.63;2.50;;;;;;;-4.25;91.58;95392.41;5060098;28;20056;-48
2022/01/23 10:22:54;;;;;;;11.23;3.40;;;;;;;-4.24;90.78;95388.94;5063604;28;20049;-48
2022/01/23 10:25:32;;;;;;;7.60;2.85;;;;;;;-4.29;91.92;95391.03;5070780;28;20771;-50
2022/01/23 10:28:10;;;;;;;5.22;3.67;;;;;;;-4.22;90.93;95377.69;5067007;28;20509;-49
2022/01/23 10:30:45;;;;;;;3.75;2.08;;;;;;;-4.19;89.91;95393.66;5067910;28;20060;-48
2022/01/23 10:33:23;;;;;;;3.78;2.60;;;;;;;-4.21;89.05;95383.59;5063142;28;20517;-47
2022/01/23 10:36:05;;;;;;;5.38;2.85;;;;;;;-4.26;89.46;95385.72;5061077;28;20056;-48
2022/01/23 10:39:01;;;;;;;9.48;3.17;;;;;;;-4.10;88.23;95401.31;5070633;28;20051;-47
2022/01/23 10:50:06;;;;;;;5.60;2.78;;;;;;;-4.27;87.67;95368.81;5064918;28;20051;-48
2022/01/23 10:52:36;;;;;;;3.95;2.97;;;;;;;-4.22;88.15;95371.81;5066142;28;20041;-49
2022/01/23 10:55:06;;;;;;;2.47;1.80;;;;;;;-4.26;86.70;95375.53;5064556;28;20509;-47
2022/01/23 10:57:50;;;;;;;7.22;3.85;;;;;;;-4.19;87.37;95376.66;5064250;28;20044;-51
2022/01/23 11:00:27;;;;;;;7.60;2.80;;;;;;;-4.20;87.39;95359.75;5062228;28;20036;-47
2022/01/23 11:02:56;;;;;;;22.13;11.05;;;;;;;-4.24;84.69;95338.06;5062378;28;20044;-48
2022/01/23 11:05:41;;;;;;;15.43;5.43;;;;;;;-4.12;85.34;95359.94;5062926;28;20052;-48
2022/01/23 11:08:30;;;;;;;6.65;3.53;;;;;;;-4.12;83.91;95341.34;5045149;28;20044;-48
2022/01/23 11:11:03;;;;;;;12.68;4.97;;;;;;;-3.99;84.87;95351.28;5062803;28;20036;-48
2022/01/23 11:19:21;;;;;;;9.38;3.65;;;;;;;-3.95;83.31;95332.28;5059491;28;20056;-47
2022/01/23 11:21:51;;;;;;;6.20;3.88;;;;;;;-3.88;84.11;95333.38;5055537;28;20060;-48
2022/01/23 11:24:20;;;;;;;3.17;1.98;;;;;;;-3.81;83.42;95329.38;5059192;28;20052;-49
2022/01/23 11:26:47;;;;;;;4.65;2.03;;;;;;;-3.86;83.14;95318.78;5059598;28;20058;-48
2022/01/23 11:29:17;;;;;;;17.83;5.88;;;;;;;-3.81;84.26;95298.03;5061861;28;20062;-47
2022/01/23 11:31:45;;;;;;;5.88;3.58;;;;;;;-3.88;82.46;95307.91;5065248;28;20054;-49
2022/01/23 11:34:14;;;;;;;7.20;4.13;;;;;;;-3.78;81.87;95308.75;5065759;28;20044;-47
2022/01/23 11:36:41;;;;;;;12.40;6.03;;;;;;;-3.82;83.04;95312.47;5060254;28;20055;-49
2022/01/23 11:39:14;;;;;;;5.50;3.03;;;;;;;-3.74;83.61;95299.91;5065246;28;20043;-48
2022/01/23 11:56:28;;;;;;;3.95;2.58;;;;;;;-3.85;82.83;95348.41;5056269;28;20040;-49
2022/01/23 11:59:23;;;;;;;9.43;5.32;;;;;;;-3.88;83.99;95297.75;5051850;28;20063;-49
2022/01/23 12:02:09;;;;;;;6.97;3.63;;;;;;;-3.96;83.63;95302.66;5060915;28;20418;-46
2022/01/23 12:04:36;;;;;;;3.92;2.85;;;;;;;-3.98;83.98;95292.63;5054656;28;20472;-47
2022/01/23 12:07:15;;;;;;;5.28;2.13;;;;;;;-4.05;84.80;95292.34;5061892;28;20044;-50
2022/01/23 12:10:08;;;;;;;7.05;4.18;;;;;;;-4.05;85.70;95256.72;5058789;28;20045;-46
2022/01/23 12:12:42;;;;;;;9.15;3.00;;;;;;;-4.15;86.85;95280.53;5061382;28;20055;-49
2022/01/23 12:18:18;;;;;;;6.75;2.88;;;;;;;-4.26;87.10;95283.97;5061159;28;20041;-47
2022/01/23 12:20:47;;;;;;;6.00;2.97;;;;;;;-4.28;87.55;95271.38;5060313;28;20040;-47
2022/01/23 12:23:15;;;;;;;10.73;5.13;;;;;;;-4.29;88.98;95274.84;5061512;28;20044;-48
2022/01/23 12:25:45;;;;;;;6.20;2.67;;;;;;;-4.27;89.80;95287.44;5060968;28;20044;-49
2022/01/23 12:28:31;;;;;;;4.45;3.05;;;;;;;-4.31;88.69;95281.81;5063667;28;20117;-47
2022/01/23 12:31:17;;;;;;;11.55;3.97;;;;;;;-4.55;88.43;95249.06;5061287;28;20044;-46
2022/01/23 12:33:48;;;;;;;5.53;3.58;;;;;;;-4.43;90.36;95293.81;5059373;28;20457;-48
2022/01/23 12:36:15;;;;;;;2.83;2.35;;;;;;;-4.35;90.62;95279.66;5059074;28;20494;-48
2022/01/23 12:38:46;;;;;;;2.88;1.90;;;;;;;-4.37;90.18;95284.06;5061340;28;20040;-46
2022/01/23 12:41:21;;;;;;;9.35;2.63;;;;;;;-4.34;89.63;95296.50;5064149;28;20127;-47
2022/01/23 12:43:55;;;;;;;9.40;3.28;;;;;;;-4.33;89.59;95303.22;5059238;28;20509;-47
2022/01/23 12:46:49;;;;;;;8.30;2.57;;;;;;;-4.46;89.46;95291.50;5058155;28;20052;-47
2022/01/23 12:49:18;;;;;;;4.47;2.13;;;;;;;-4.49;88.60;95299.38;5048538;28;20522;-46
2022/01/23 12:51:50;;;;;;;3.85;2.22;;;;;;;-4.45;88.96;95290.59;5059534;28;20477;-46
2022/01/23 12:54:21;;;;;;;4.80;2.63;;;;;;;-4.43;89.53;95309.06;5060353;28;20044;-47
2022/01/23 12:56:49;;;;;;;5.32;3.60;;;;;;;-4.45;90.19;95294.84;5058259;28;20127;-46
2022/01/23 12:59:26;;;;;;;5.82;2.72;;;;;;;-4.48;90.02;95301.00;5059960;28;20415;-48
2022/01/23 13:02:01;;;;;;;6.93;2.45;;;;;;;-4.37;89.39;95301.88;5060598;28;20045;-46
2022/01/23 13:04:38;;;;;;;5.75;2.35;;;;;;;-4.27;89.23;95297.59;5063977;28;20040;-48
2022/01/23 13:07:13;;;;;;;3.33;2.13;;;;;;;-4.25;89.80;95300.81;5058394;28;20059;-52
2022/01/23 13:09:48;;;;;;;4.00;2.63;;;;;;;-4.13;89.30;95289.63;5062233;28;20183;-49
2022/01/23 13:15:46;;;;;;;4.18;2.80;;;;;;;-4.39;89.42;95298.63;5052185;28;20996;-48
2022/01/23 13:32:01;;;;;;;3.00;1.67;;;;;;;-4.51;90.62;95305.53;5057247;28;20040;-48
2022/01/23 13:34:29;;;;;;;3.05;2.60;;;;;;;-4.54;89.98;95326.91;5060024;28;20055;-48
2022/01/23 13:37:10;;;;;;;5.22;4.13;;;;;;;-4.50;90.55;95310.50;5064681;28;20044;-48
2022/01/23 13:40:16;;;;;;;4.35;3.45;;;;;;;-4.40;90.68;95319.91;5057684;28;20040;-47
2022/01/23 13:51:42;;;;;;;5.82;3.20;;;;;;;-4.39;93.04;95304.53;5071972;28;21817;-47
2022/01/23 14:02:35;;;;;;;4.15;2.65;;;;;;;-4.52;91.89;95289.50;5063606;28;20047;-47
2022/01/23 14:05:07;;;;;;;3.92;2.38;;;;;;;-4.32;92.49;95309.91;5058377;28;20052;-47
2022/01/23 14:07:36;;;;;;;7.88;3.35;;;;;;;-4.44;92.23;95310.00;5056211;28;20036;-48
2022/01/23 14:10:14;;;;;;;4.85;3.88;;;;;;;-4.49;91.42;95309.56;5059308;28;20049;-47
2022/01/23 14:12:42;;;;;;;4.22;2.50;;;;;;;-4.56;92.48;95331.34;5059068;28;20051;-50
2022/01/23 14:15:21;;;;;;;2.70;2.30;;;;;;;-4.68;93.04;95309.44;5063279;28;20163;-48
2022/01/23 14:18:00;;;;;;;4.72;3.00;;;;;;;-4.80;96.11;95314.59;5057100;28;20054;-48
2022/01/23 14:20:30;;;;;;;4.05;3.03;;;;;;;-4.88;100.00;95314.44;5054917;28;20049;-47
2022/01/23 14:22:57;;;;;;;5.60;3.35;;;;;;;-5.13;100.00;95304.63;5063441;28;20044;-49
2022/01/23 14:25:27;;;;;;;3.10;2.55;;;;;;;-5.10;100.00;95330.56;5057257;28;20425;-48
2022/01/23 14:28:11;;;;;;;4.35;2.40;;;;;;;-5.13;100.00;95335.09;5060652;28;20048;-49
2022/01/23 14:30:47;;;;;;;2.85;2.03;;;;;;;-5.16;100.00;95325.19;5062574;28;20052;-49
2022/01/23 14:33:22;;;;;;;7.47;2.80;;;;;;;-5.24;100.00;95329.16;5064221;28;20554;-50
2022/01/23 14:35:50;;;;;;;6.90;2.85;;;;;;;-5.34;100.00;95327.47;5061832;28;20645;-48
2022/01/23 14:38:25;;;;;;;6.38;2.80;;;;;;;-5.43;100.00;95339.13;5064781;28;20059;-48
2022/01/23 14:40:56;;;;;;;2.80;2.15;;;;;;;-5.41;100.00;95337.28;5061682;28;20044;-47
2022/01/23 14:43:31;;;;;;;5.13;3.58;;;;;;;-5.48;100.00;95341.22;5063981;28;20041;-50
2022/01/23 14:45:59;;;;;;;5.47;3.33;;;;;;;-5.44;100.00;95334.97;5059877;28;20056;-49
2022/01/23 14:48:26;;;;;;;5.38;3.50;;;;;;;-5.55;100.00;95319.78;5054574;28;20111;-50
2022/01/23 14:50:56;;;;;;;6.13;2.83;;;;;;;-5.51;100.00;95331.31;5061299;28;20056;-48
2022/01/23 14:53:24;;;;;;;3.10;1.63;;;;;;;-5.46;100.00;95329.22;5064481;28;20049;-46
2022/01/23 14:55:56;;;;;;;5.93;3.70;;;;;;;-5.45;100.00;95351.16;5062280;28;20220;-47
2022/01/23 14:58:24;;;;;;;8.57;4.03;;;;;;;-5.52;100.00;95347.47;5060904;28;20049;-48
2022/01/23 15:00:56;;;;;;;3.78;2.50;;;;;;;-5.51;100.00;95346.53;5065991;28;20056;-46
2022/01/23 15:03:27;;;;;;;4.85;3.25;;;;;;;-5.46;100.00;95349.53;5055039;28;20110;-47
2022/01/23 15:05:54;;;;;;;3.75;2.58;;;;;;;-5.45;100.00;95351.16;5056117;28;20056;-48
2022/01/23 15:08:24;;;;;;;3.70;2.90;;;;;;;-5.42;100.00;95350.88;5054208;28;21973;-47
2022/01/23 15:10:57;;;;;;;3.92;2.90;;;;;;;-5.40;100.00;95364.28;5058334;28;20051;-50
2022/01/23 15:13:26;;;;;;;8.32;4.10;;;;;;;-5.43;100.00;95360.25;5056095;28;20074;-49
2022/01/23 15:15:54;;;;;;;10.27;5.68;;;;;;;-5.45;100.00;95361.31;5054295;28;20075;-47
2022/01/23 15:18:23;;;;;;;10.48;5.80;;;;;;;-5.46;100.00;95354.59;5054737;28;20059;-48
2022/01/23 15:20:50;;;;;;;11.18;5.20;;;;;;;-5.51;100.00;95361.75;5053422;28;20057;-51
2022/01/23 15:23:17;;;;;;;10.98;3.35;;;;;;;-5.66;100.00;95349.34;5054056;28;20042;-48
2022/01/23 15:25:45;;;;;;;5.07;3.80;;;;;;;-5.61;100.00;95371.84;5058690;28;20624;-47